Fernley, Nevada
Current Conditions -  °F | °C
As of 8:55 AM on Saturday 22 Nov 2014 (Local Time) from KRNO Reporting Station
Broken Clouds Broken Clouds  
Wind Chill: 57°   Ceiling: 15000
Heat Index: 57°   Visibility: 10mi
Dew Point: 43°   Wind: 13mph
Humidity: 59%   Direction: 280°W
Pressure: 29.92"   Gusts: NA
Location:  39.6°N, 119.24°W
Report Text: KRNO 221655Z 28011KT 10SM FEW039 SCT060 BKN150 BKN190 14/06 A2992 RMK AO2 RAE02 SLP108 MTN TOPS OBSCD S-W SH DSNT SE-SW P0000 T01390061
Loading
Personal Weather Stations






























Interactive Weather Map New forecast layout! Learn more

10-Day Weather Forecast

Advertisements
Track Severe Weather on mobile